Time;durP1;ratioP1;P1;durP2;ratioP2;P2;SDS_P1;SDS_P2;PMS_P1;PMS_P2;Temp;Humidity;BMP_temperature;BMP_pressure;BME280_temperature;BME280_humidity;BME280_pressure;Samples;Min_cycle;Max_cycle;Signal;HPM_P1;HPM_P2
2021/11/29 00:02:00;;;;;;;58.92;22.65;;;-0.20;99.90;;;;;;4990706;28;20396;-76
2021/11/29 00:04:26;;;;;;;76.68;30.55;;;-0.20;99.90;;;;;;4978557;28;20129;-76
2021/11/29 00:06:52;;;;;;;72.53;29.58;;;-0.20;99.90;;;;;;4996068;28;20502;-75
2021/11/29 00:09:17;;;;;;;53.42;24.40;;;-0.20;99.90;;;;;;4995979;28;20046;-75
2021/11/29 00:11:43;;;;;;;66.07;26.63;;;-0.20;99.90;;;;;;4984582;28;20049;-76
2021/11/29 00:14:09;;;;;;;53.60;24.95;;;-0.20;99.90;;;;;;4995940;28;20499;-75
2021/11/29 00:16:35;;;;;;;63.63;23.02;;;-0.20;99.90;;;;;;4995994;28;20030;-76
2021/11/29 00:19:04;;;;;;;50.78;22.15;;;-0.20;99.90;;;;;;4994593;28;20030;-75
2021/11/29 00:21:33;;;;;;;54.95;22.73;;;-0.20;99.90;;;;;;4994508;28;20030;-76
2021/11/29 00:23:59;;;;;;;48.72;21.45;;;-0.20;99.90;;;;;;4995817;28;20023;-76
2021/11/29 00:26:27;;;;;;;61.90;26.58;;;-0.30;99.90;;;;;;4994371;28;20431;-75
2021/11/29 00:28:52;;;;;;;51.75;23.13;;;-0.30;99.90;;;;;;4993809;28;20407;-75
2021/11/29 00:31:19;;;;;;;53.90;21.83;;;-0.30;99.90;;;;;;4995683;28;20105;-75
2021/11/29 00:33:44;;;;;;;57.22;24.02;;;-0.30;99.90;;;;;;4995676;28;20030;-75
2021/11/29 00:36:10;;;;;;;63.65;25.00;;;-0.30;99.90;;;;;;4995976;28;20031;-75
2021/11/29 00:38:37;;;;;;;63.72;25.83;;;-0.30;99.90;;;;;;4995576;28;20391;-75
2021/11/29 00:41:03;;;;;;;57.67;23.83;;;-0.30;99.90;;;;;;4977985;28;20026;-75
2021/11/29 00:43:28;;;;;;;57.35;23.48;;;-0.30;99.90;;;;;;4995466;28;20030;-75
2021/11/29 00:45:54;;;;;;;52.75;21.42;;;-0.30;99.90;;;;;;4977905;28;20076;-75
2021/11/29 00:48:19;;;;;;;50.53;22.30;;;-0.40;99.90;;;;;;4995316;28;20145;-76
2021/11/29 00:50:45;;;;;;;59.03;22.98;;;-0.30;99.90;;;;;;4995597;28;20468;-75
2021/11/29 00:53:12;;;;;;;52.92;22.83;;;-0.30;99.90;;;;;;4977824;28;20070;-75
2021/11/29 00:55:39;;;;;;;75.05;28.65;;;-0.30;99.90;;;;;;4995197;28;20023;-75
2021/11/29 00:58:07;;;;;;;58.30;25.27;;;-0.30;99.90;;;;;;4977714;28;20018;-75
2021/11/29 01:00:34;;;;;;;57.88;22.10;;;-0.30;99.90;;;;;;4977697;28;20027;-75
2021/11/29 01:03:01;;;;;;;48.45;21.02;;;-0.30;99.90;;;;;;4995150;28;20169;-75
2021/11/29 01:05:26;;;;;;;55.67;23.45;;;-0.30;99.90;;;;;;4994962;28;20105;-75
2021/11/29 01:07:52;;;;;;;63.17;27.73;;;-0.30;99.90;;;;;;4994900;28;20113;-75
2021/11/29 01:10:20;;;;;;;52.97;20.83;;;-0.40;99.90;;;;;;4977389;28;20416;-75
2021/11/29 01:12:46;;;;;;;47.97;20.15;;;-0.40;99.90;;;;;;4977565;28;20034;-75
2021/11/29 01:15:15;;;;;;;52.20;22.95;;;-0.50;99.90;;;;;;4994841;28;20133;-75
2021/11/29 01:17:41;;;;;;;54.53;24.27;;;-0.50;99.90;;;;;;4994791;28;20105;-76
2021/11/29 01:20:08;;;;;;;50.90;22.08;;;-0.50;99.90;;;;;;4994709;28;20460;-75
2021/11/29 01:22:35;;;;;;;44.33;19.67;;;-0.50;99.90;;;;;;4977230;28;20022;-75
2021/11/29 01:25:01;;;;;;;46.45;21.42;;;-0.40;99.90;;;;;;4994574;28;20029;-75
2021/11/29 01:27:27;;;;;;;44.40;20.65;;;-0.40;99.90;;;;;;4977115;28;20111;-75
2021/11/29 01:29:53;;;;;;;43.58;21.35;;;-0.40;99.90;;;;;;4994530;28;20061;-75
2021/11/29 01:32:18;;;;;;;45.13;21.02;;;-0.40;99.90;;;;;;4994564;28;20057;-75
2021/11/29 01:34:44;;;;;;;44.92;20.42;;;-0.40;99.90;;;;;;4994403;28;20396;-75
2021/11/29 01:37:10;;;;;;;55.35;25.17;;;-0.40;99.90;;;;;;4976947;28;20073;-77
2021/11/29 01:39:36;;;;;;;58.25;24.73;;;-0.30;99.90;;;;;;4976648;28;20045;-76
2021/11/29 01:42:02;;;;;;;44.92;20.48;;;-0.40;99.90;;;;;;4976876;28;20399;-76
2021/11/29 01:44:28;;;;;;;43.00;19.65;;;-0.40;99.90;;;;;;4976836;28;20052;-76
2021/11/29 01:46:54;;;;;;;49.28;20.27;;;-0.40;99.90;;;;;;4976824;28;20441;-76
2021/11/29 01:49:19;;;;;;;56.17;23.75;;;-0.40;99.90;;;;;;4976567;28;20388;-75
2021/11/29 01:51:45;;;;;;;47.78;20.25;;;-0.40;99.90;;;;;;4994251;28;20027;-75
2021/11/29 01:54:11;;;;;;;50.97;22.10;;;-0.40;99.90;;;;;;4976679;28;20088;-75
2021/11/29 01:56:37;;;;;;;51.05;23.25;;;-0.40;99.90;;;;;;4976696;28;20495;-76
2021/11/29 01:59:05;;;;;;;48.65;22.48;;;-0.40;99.90;;;;;;4976537;28;20377;-76
2021/11/29 02:01:31;;;;;;;50.47;20.90;;;-0.40;99.90;;;;;;4994215;28;20018;-76
2021/11/29 02:03:59;;;;;;;48.30;20.15;;;-0.40;99.90;;;;;;4976515;28;20113;-76
2021/11/29 02:06:27;;;;;;;50.88;22.63;;;-0.40;99.90;;;;;;4993918;28;20022;-75
2021/11/29 02:08:53;;;;;;;50.35;21.02;;;-0.40;99.90;;;;;;4993758;28;20034;-75
2021/11/29 02:11:21;;;;;;;55.45;22.35;;;-0.40;99.90;;;;;;4976353;28;20029;-75
2021/11/29 02:13:46;;;;;;;52.55;20.90;;;-0.40;99.90;;;;;;4993878;28;20022;-76
2021/11/29 02:16:12;;;;;;;58.00;20.70;;;-0.40;99.90;;;;;;4993737;28;20033;-75
2021/11/29 02:18:40;;;;;;;45.28;21.17;;;-0.40;99.90;;;;;;4976290;28;20117;-75
2021/11/29 02:21:09;;;;;;;44.95;19.83;;;-0.40;99.90;;;;;;4993686;28;20023;-75
2021/11/29 02:23:40;;;;;;;52.30;20.92;;;-0.40;99.90;;;;;;4993711;28;20022;-75
2021/11/29 02:26:06;;;;;;;39.47;18.58;;;-0.40;99.90;;;;;;4993706;28;20109;-75
2021/11/29 02:28:33;;;;;;;44.22;19.63;;;-0.50;99.90;;;;;;4976135;28;20122;-75
2021/11/29 02:30:59;;;;;;;50.72;20.08;;;-0.50;99.90;;;;;;4976156;28;20054;-75
2021/11/29 02:33:28;;;;;;;52.00;21.65;;;-0.50;99.90;;;;;;4993627;28;20061;-76
2021/11/29 02:35:53;;;;;;;53.95;22.55;;;-0.50;99.90;;;;;;4975873;28;20403;-75
2021/11/29 02:38:19;;;;;;;52.88;22.33;;;-0.50;99.90;;;;;;4993595;28;20035;-75
2021/11/29 02:40:46;;;;;;;52.15;21.55;;;-0.50;99.90;;;;;;4993914;28;20029;-75
2021/11/29 02:43:12;;;;;;;54.55;23.13;;;-0.50;99.90;;;;;;4976049;28;20404;-75
2021/11/29 02:45:37;;;;;;;49.67;21.25;;;-0.50;99.90;;;;;;4993459;28;20041;-75
2021/11/29 02:48:04;;;;;;;46.55;21.73;;;-0.50;99.90;;;;;;4975880;28;20023;-76
2021/11/29 02:50:35;;;;;;;52.65;21.45;;;-0.50;99.90;;;;;;4994699;28;20029;-76
2021/11/29 02:53:00;;;;;;;41.42;20.33;;;-0.50;99.90;;;;;;4980008;28;20026;-75
2021/11/29 02:55:26;;;;;;;52.47;22.27;;;-0.50;99.90;;;;;;4997708;28;20033;-75
2021/11/29 02:57:52;;;;;;;53.08;22.50;;;-0.40;99.90;;;;;;4997433;28;20432;-75
2021/11/29 03:00:17;;;;;;;55.75;23.27;;;-0.40;99.90;;;;;;4997341;28;20097;-75
2021/11/29 03:02:43;;;;;;;44.97;19.15;;;-0.40;99.90;;;;;;4997334;28;20114;-75
2021/11/29 03:05:09;;;;;;;44.67;19.48;;;-0.50;99.90;;;;;;4979741;28;20068;-75
2021/11/29 03:07:35;;;;;;;54.95;22.23;;;-0.40;99.90;;;;;;4997235;28;20392;-76
2021/11/29 03:10:00;;;;;;;41.90;19.77;;;-0.40;99.90;;;;;;4997108;28;20027;-75
2021/11/29 03:12:26;;;;;;;41.65;19.55;;;-0.40;99.90;;;;;;4979697;28;20023;-75
2021/11/29 03:14:52;;;;;;;42.63;20.13;;;-0.50;99.90;;;;;;4979518;28;20029;-75
2021/11/29 03:17:18;;;;;;;46.70;19.90;;;-0.50;99.90;;;;;;4979534;28;20150;-75
2021/11/29 03:19:45;;;;;;;48.50;22.02;;;-0.50;99.90;;;;;;4996963;28;20026;-75
2021/11/29 03:22:11;;;;;;;46.30;21.80;;;-0.40;99.90;;;;;;4979447;28;20030;-75
2021/11/29 03:24:43;;;;;;;50.20;22.52;;;-0.40;99.90;;;;;;4996930;28;20092;-75
2021/11/29 03:27:09;;;;;;;43.57;20.90;;;-0.40;99.90;;;;;;4996961;28;20033;-75
2021/11/29 03:29:35;;;;;;;45.65;21.08;;;-0.40;99.90;;;;;;4996723;28;20289;-75
2021/11/29 03:32:04;;;;;;;52.00;22.90;;;-0.40;99.90;;;;;;4996786;28;20051;-75
2021/11/29 03:34:32;;;;;;;46.80;21.13;;;-0.40;99.90;;;;;;4979153;28;20065;-75
2021/11/29 03:36:58;;;;;;;49.30;22.17;;;-0.50;99.90;;;;;;4996712;28;20027;-75
2021/11/29 03:39:27;;;;;;;49.90;22.75;;;-0.50;99.90;;;;;;4979090;28;20026;-75
2021/11/29 03:41:57;;;;;;;44.33;22.40;;;-0.50;99.90;;;;;;4979124;28;20026;-75
2021/11/29 03:44:23;;;;;;;43.60;20.48;;;-0.50;99.90;;;;;;4996504;28;20488;-75
2021/11/29 03:46:51;;;;;;;48.80;21.83;;;-0.40;99.90;;;;;;4979053;28;20138;-76
2021/11/29 03:49:17;;;;;;;44.08;20.90;;;-0.40;99.90;;;;;;4978898;28;20045;-75
2021/11/29 03:51:43;;;;;;;46.55;22.15;;;-0.40;99.90;;;;;;4996500;28;20026;-75
2021/11/29 03:54:09;;;;;;;47.72;20.85;;;-0.40;99.90;;;;;;4978584;28;20586;-75
2021/11/29 03:56:35;;;;;;;42.50;18.95;;;-0.40;99.90;;;;;;4996385;28;20033;-75
2021/11/29 03:59:01;;;;;;;46.10;21.90;;;-0.40;99.90;;;;;;4984484;28;20026;-76
2021/11/29 04:01:27;;;;;;;42.72;19.10;;;-0.40;99.90;;;;;;4983286;28;20078;-75
2021/11/29 04:03:53;;;;;;;39.65;18.15;;;-0.40;99.90;;;;;;4991400;28;20031;-75
2021/11/29 04:06:19;;;;;;;39.42;18.75;;;-0.40;99.90;;;;;;4983449;28;20089;-75
2021/11/29 04:08:44;;;;;;;40.47;19.08;;;-0.40;99.90;;;;;;4991707;28;20069;-76
2021/11/29 04:11:10;;;;;;;42.72;20.23;;;-0.40;99.90;;;;;;4983689;28;20018;-75
2021/11/29 04:13:36;;;;;;;41.63;20.95;;;-0.30;99.90;;;;;;4981664;28;20084;-75
2021/11/29 04:16:03;;;;;;;39.78;19.60;;;-0.40;99.90;;;;;;4991689;28;20080;-75
2021/11/29 04:18:28;;;;;;;43.15;19.45;;;-0.30;99.90;;;;;;4981410;28;20027;-76
2021/11/29 04:20:56;;;;;;;37.90;19.10;;;-0.40;99.90;;;;;;4992523;28;20033;-75
2021/11/29 04:23:22;;;;;;;40.88;18.77;;;-0.40;99.90;;;;;;4982133;28;20023;-75
2021/11/29 04:25:53;;;;;;;37.70;18.67;;;-0.40;99.90;;;;;;4991773;28;20023;-75
2021/11/29 04:28:19;;;;;;;36.45;16.90;;;-0.40;99.90;;;;;;4992310;28;20034;-75
2021/11/29 04:30:45;;;;;;;43.10;20.73;;;-0.40;99.90;;;;;;4978994;28;20021;-76
2021/11/29 04:33:11;;;;;;;34.30;18.38;;;-0.30;99.90;;;;;;4991779;28;20026;-76
2021/11/29 04:35:37;;;;;;;36.22;18.05;;;-0.40;99.90;;;;;;4992171;28;20041;-75
2021/11/29 04:38:03;;;;;;;37.15;17.85;;;-0.40;99.90;;;;;;4982007;28;20061;-75
2021/11/29 04:40:29;;;;;;;38.20;16.75;;;-0.40;99.90;;;;;;4991409;28;20026;-75
2021/11/29 04:42:54;;;;;;;31.55;16.08;;;-0.30;99.90;;;;;;4987601;28;20014;-75
2021/11/29 04:45:20;;;;;;;33.60;16.45;;;-0.40;99.90;;;;;;4982783;28;20068;-75
2021/11/29 04:47:46;;;;;;;32.72;15.43;;;-0.30;99.90;;;;;;4978960;28;20489;-75
2021/11/29 04:50:12;;;;;;;31.52;16.80;;;-0.30;99.90;;;;;;4993731;28;20073;-75
2021/11/29 04:52:38;;;;;;;34.78;17.35;;;-0.40;99.90;;;;;;4994128;28;20068;-76
2021/11/29 04:55:04;;;;;;;35.53;16.42;;;-0.40;99.90;;;;;;4984272;28;20026;-75
2021/11/29 04:57:30;;;;;;;36.10;18.27;;;-0.40;99.90;;;;;;4994139;28;20093;-75
2021/11/29 04:59:55;;;;;;;40.97;20.38;;;-0.40;99.90;;;;;;4993550;28;20101;-75
2021/11/29 05:02:22;;;;;;;42.83;19.08;;;-0.30;99.90;;;;;;4993832;28;20034;-75
2021/11/29 05:04:48;;;;;;;44.38;21.05;;;-0.40;99.90;;;;;;4982745;28;20026;-75
2021/11/29 05:07:15;;;;;;;50.25;19.35;;;-0.40;99.90;;;;;;4985079;28;20030;-76
2021/11/29 05:09:42;;;;;;;42.97;18.88;;;-0.40;99.90;;;;;;4993808;28;20046;-75
2021/11/29 05:12:15;;;;;;;43.15;18.35;;;-0.40;99.90;;;;;;4993800;28;20030;-75
2021/11/29 05:14:46;;;;;;;48.20;19.33;;;-0.50;99.90;;;;;;4985916;28;20038;-75
2021/11/29 05:17:13;;;;;;;51.30;19.98;;;-0.50;99.90;;;;;;4993656;28;20022;-75
2021/11/29 05:19:39;;;;;;;42.00;18.92;;;-0.50;99.90;;;;;;4993122;28;20057;-75
2021/11/29 05:22:05;;;;;;;46.25;19.95;;;-0.60;99.90;;;;;;4993975;28;20011;-76
2021/11/29 05:24:31;;;;;;;55.95;24.77;;;-0.60;99.90;;;;;;4993790;28;20030;-75
2021/11/29 05:26:57;;;;;;;49.05;22.20;;;-0.60;99.90;;;;;;4993563;28;20022;-75
2021/11/29 05:29:22;;;;;;;47.28;21.70;;;-0.60;99.90;;;;;;4993548;28;20088;-75
2021/11/29 05:31:48;;;;;;;54.65;21.60;;;-0.70;99.90;;;;;;4982873;28;20033;-75
2021/11/29 05:34:14;;;;;;;55.13;22.50;;;-0.60;99.90;;;;;;4993448;28;20085;-75
2021/11/29 05:36:40;;;;;;;60.53;23.45;;;-0.60;99.90;;;;;;4979796;28;20105;-75
2021/11/29 05:39:05;;;;;;;44.90;18.95;;;-0.60;99.90;;;;;;4992888;28;20018;-75
2021/11/29 05:41:31;;;;;;;51.83;22.88;;;-0.60;99.90;;;;;;4984473;28;20026;-75
2021/11/29 05:43:57;;;;;;;47.88;20.73;;;-0.50;99.90;;;;;;4993241;28;20018;-76
2021/11/29 05:46:23;;;;;;;51.53;23.95;;;-0.50;99.90;;;;;;4984927;28;20037;-75
2021/11/29 05:48:50;;;;;;;54.60;23.90;;;-0.50;99.90;;;;;;4985636;28;20034;-76
2021/11/29 05:51:16;;;;;;;47.25;20.85;;;-0.50;99.90;;;;;;4986914;28;20053;-75
2021/11/29 05:53:42;;;;;;;50.70;20.02;;;-0.50;99.90;;;;;;4992915;28;20393;-75
2021/11/29 05:56:08;;;;;;;49.67;20.73;;;-0.50;99.90;;;;;;4991674;28;20499;-75
2021/11/29 05:58:36;;;;;;;56.25;24.38;;;-0.50;99.90;;;;;;4987993;28;20030;-75
2021/11/29 06:01:03;;;;;;;144.93;59.40;;;-0.50;99.90;;;;;;4992649;28;20022;-75
2021/11/29 06:03:29;;;;;;;223.65;86.97;;;-0.50;99.90;;;;;;4993491;28;20018;-75
2021/11/29 06:05:55;;;;;;;72.55;29.92;;;-0.50;99.90;;;;;;4993890;28;20027;-75
2021/11/29 06:08:21;;;;;;;184.18;69.43;;;-0.50;99.90;;;;;;4993751;28;20068;-76
2021/11/29 06:10:47;;;;;;;95.88;41.30;;;-0.50;99.90;;;;;;4989625;28;20030;-75
2021/11/29 06:13:13;;;;;;;126.07;58.25;;;-0.60;99.90;;;;;;4973433;28;20166;-75
2021/11/29 06:15:38;;;;;;;79.97;35.08;;;-0.60;99.90;;;;;;4973910;28;20121;-75
2021/11/29 06:18:04;;;;;;;250.00;104.97;;;-0.60;99.90;;;;;;4971904;28;20477;-75
2021/11/29 06:20:30;;;;;;;144.38;63.13;;;-0.50;99.90;;;;;;4973819;28;20041;-75
2021/11/29 06:22:56;;;;;;;92.70;40.03;;;-0.60;99.90;;;;;;4983944;28;20498;-74
2021/11/29 06:25:23;;;;;;;69.45;29.52;;;-0.60;99.90;;;;;;4974897;28;20033;-74
2021/11/29 06:27:50;;;;;;;83.85;36.70;;;-0.60;99.90;;;;;;4975587;28;20022;-75
2021/11/29 06:30:17;;;;;;;71.95;32.95;;;-0.60;99.90;;;;;;4993062;28;20062;-75
2021/11/29 06:32:43;;;;;;;69.95;35.78;;;-0.60;99.90;;;;;;4991227;28;20019;-75
2021/11/29 06:35:10;;;;;;;94.93;44.13;;;-0.60;99.90;;;;;;4991911;28;20057;-74
2021/11/29 06:37:37;;;;;;;55.92;25.80;;;-0.60;99.90;;;;;;4977749;28;20065;-74
2021/11/29 06:40:05;;;;;;;66.40;32.75;;;-0.60;99.90;;;;;;4989174;28;20031;-74
2021/11/29 06:42:31;;;;;;;59.53;23.50;;;-0.60;99.90;;;;;;4989768;28;20038;-74
2021/11/29 06:44:56;;;;;;;66.18;25.55;;;-0.60;99.90;;;;;;4989678;28;20049;-74
2021/11/29 06:47:22;;;;;;;52.67;23.67;;;-0.60;99.90;;;;;;4978918;28;20105;-75
2021/11/29 06:49:49;;;;;;;134.32;48.03;;;-0.60;99.90;;;;;;4980861;28;20042;-75
2021/11/29 06:52:15;;;;;;;45.13;20.25;;;-0.60;99.90;;;;;;4980563;28;20050;-75
2021/11/29 06:54:41;;;;;;;58.78;23.17;;;-0.60;99.90;;;;;;4991924;28;20054;-75
2021/11/29 06:57:07;;;;;;;60.60;25.45;;;-0.60;99.90;;;;;;4982701;28;20014;-74
2021/11/29 06:59:34;;;;;;;45.47;20.08;;;-0.60;99.90;;;;;;4991600;28;20065;-74
2021/11/29 07:02:03;;;;;;;91.13;35.38;;;-0.60;99.90;;;;;;4991093;28;20460;-75
2021/11/29 07:04:29;;;;;;;120.90;40.58;;;-0.60;99.90;;;;;;4992057;28;20050;-74
2021/11/29 07:06:54;;;;;;;119.90;37.58;;;-0.60;99.90;;;;;;4980067;28;20120;-75
2021/11/29 07:09:20;;;;;;;99.47;40.17;;;-0.70;99.90;;;;;;4991877;28;20034;-74
2021/11/29 07:11:46;;;;;;;68.10;29.63;;;-0.60;99.90;;;;;;4980114;28;20022;-74
2021/11/29 07:14:13;;;;;;;60.28;26.02;;;-0.60;99.90;;;;;;4978248;28;20027;-74
2021/11/29 07:16:39;;;;;;;46.78;20.58;;;-0.60;99.90;;;;;;4992186;28;20030;-75
2021/11/29 07:19:06;;;;;;;56.40;22.48;;;-0.60;99.90;;;;;;4989696;28;20423;-75
2021/11/29 07:21:32;;;;;;;48.90;21.77;;;-0.60;99.90;;;;;;4991033;28;20026;-74
2021/11/29 07:23:58;;;;;;;74.93;26.70;;;-0.60;99.90;;;;;;4991297;28;20508;-75
2021/11/29 07:26:24;;;;;;;88.55;32.55;;;-0.60;99.90;;;;;;4982541;28;20388;-74
2021/11/29 07:28:49;;;;;;;68.30;26.98;;;-0.50;99.90;;;;;;4990840;28;20742;-75
2021/11/29 07:31:15;;;;;;;58.65;25.45;;;-0.50;99.90;;;;;;4992010;28;20121;-74
2021/11/29 07:33:41;;;;;;;49.17;19.83;;;-0.50;99.90;;;;;;4980616;28;20030;-76
2021/11/29 07:36:07;;;;;;;53.85;21.83;;;-0.60;99.90;;;;;;4992841;28;20065;-75
2021/11/29 07:38:32;;;;;;;53.00;23.67;;;-0.50;99.90;;;;;;4995785;28;20093;-75
2021/11/29 07:40:58;;;;;;;60.90;24.48;;;-0.60;99.90;;;;;;4984141;28;20113;-74
2021/11/29 07:43:24;;;;;;;63.13;25.13;;;-0.50;99.90;;;;;;4995005;28;20491;-75
2021/11/29 07:45:50;;;;;;;91.43;34.53;;;-0.50;99.90;;;;;;4984458;28;20022;-74
2021/11/29 07:48:18;;;;;;;71.78;32.70;;;-0.50;99.90;;;;;;4990211;28;20034;-75
2021/11/29 07:50:44;;;;;;;79.72;30.35;;;-0.50;99.90;;;;;;4995278;28;20120;-74
2021/11/29 07:53:10;;;;;;;61.95;23.27;;;-0.50;99.90;;;;;;4984206;28;20049;-74
2021/11/29 07:55:37;;;;;;;57.38;23.67;;;-0.50;99.90;;;;;;4995195;28;20487;-74
2021/11/29 07:58:04;;;;;;;75.10;28.45;;;-0.60;99.90;;;;;;4995524;28;20026;-75
2021/11/29 08:00:33;;;;;;;57.88;21.67;;;-0.60;99.90;;;;;;4984475;28;20034;-75
2021/11/29 08:03:00;;;;;;;53.45;22.98;;;-0.50;99.90;;;;;;4995532;28;20476;-74
2021/11/29 08:05:27;;;;;;;54.47;21.80;;;-0.50;99.90;;;;;;4994860;28;20578;-74
2021/11/29 08:07:54;;;;;;;108.85;46.25;;;-0.50;99.90;;;;;;4990574;28;20022;-74
2021/11/29 08:10:21;;;;;;;49.97;23.52;;;-0.50;99.90;;;;;;4996106;28;20447;-74
2021/11/29 08:12:47;;;;;;;52.55;20.63;;;-0.50;99.90;;;;;;4989587;28;20053;-75
2021/11/29 08:15:14;;;;;;;49.78;21.27;;;-0.50;99.90;;;;;;4995499;28;20089;-75
2021/11/29 08:17:39;;;;;;;86.30;33.40;;;-0.50;99.90;;;;;;4994316;28;20026;-75
2021/11/29 08:20:06;;;;;;;60.30;25.30;;;-0.60;99.90;;;;;;4983523;28;20018;-75
2021/11/29 08:22:32;;;;;;;75.55;29.52;;;-0.60;99.90;;;;;;4995356;28;20054;-75
2021/11/29 08:24:58;;;;;;;81.50;29.33;;;-0.50;99.90;;;;;;4977467;28;20049;-75
2021/11/29 08:27:23;;;;;;;76.93;28.85;;;-0.50;99.90;;;;;;4994291;28;20480;-75
2021/11/29 08:29:49;;;;;;;98.28;36.28;;;-0.50;99.90;;;;;;4992398;28;20061;-75
2021/11/29 08:32:16;;;;;;;69.50;30.35;;;-0.50;99.90;;;;;;4991148;28;20030;-76
2021/11/29 08:34:43;;;;;;;63.78;26.13;;;-0.60;99.90;;;;;;4981481;28;20451;-75
2021/11/29 08:37:11;;;;;;;83.70;36.20;;;-0.60;99.90;;;;;;4994279;28;20022;-75
2021/11/29 08:39:39;;;;;;;114.45;39.95;;;-0.60;99.90;;;;;;4985792;28;20077;-74
2021/11/29 08:42:06;;;;;;;108.60;38.95;;;-0.60;99.90;;;;;;4982011;28;20014;-75
2021/11/29 08:44:32;;;;;;;119.15;34.97;;;-0.60;99.90;;;;;;4992804;28;20046;-75
2021/11/29 08:46:58;;;;;;;171.15;52.47;;;-0.70;99.90;;;;;;4993631;28;20480;-75
2021/11/29 08:49:25;;;;;;;130.55;39.50;;;-0.60;99.90;;;;;;4993215;28;20038;-75
2021/11/29 08:51:53;;;;;;;76.90;30.25;;;-0.60;99.90;;;;;;4994188;28;20037;-75
2021/11/29 08:54:18;;;;;;;175.70;65.28;;;-0.60;99.90;;;;;;4991242;28;20022;-75
2021/11/29 08:56:46;;;;;;;71.78;31.67;;;-0.60;99.90;;;;;;4979984;28;20369;-76
2021/11/29 08:59:13;;;;;;;59.58;26.10;;;-0.60;99.90;;;;;;4978393;28;20030;-75
2021/11/29 09:01:39;;;;;;;100.15;35.53;;;-0.60;99.90;;;;;;4990567;28;20072;-75
2021/11/29 09:04:04;;;;;;;74.30;29.67;;;-0.60;99.90;;;;;;4982855;28;20022;-75
2021/11/29 09:06:30;;;;;;;63.90;24.52;;;-0.60;99.90;;;;;;4982671;28;20435;-75
2021/11/29 09:08:56;;;;;;;49.38;19.17;;;-0.70;99.90;;;;;;4992036;28;20041;-76
2021/11/29 09:11:22;;;;;;;69.80;26.70;;;-0.70;99.90;;;;;;4986425;28;20027;-75
2021/11/29 09:13:47;;;;;;;70.80;29.52;;;-0.60;99.90;;;;;;4993924;28;20045;-76
2021/11/29 09:16:16;;;;;;;67.50;27.45;;;-0.60;99.90;;;;;;4992700;28;20022;-75
2021/11/29 09:18:43;;;;;;;63.40;27.95;;;-0.60;99.90;;;;;;4981471;28;20022;-76
2021/11/29 09:21:12;;;;;;;45.08;21.00;;;-0.50;99.90;;;;;;4991528;28;20034;-76
2021/11/29 09:23:39;;;;;;;70.43;26.45;;;-0.60;99.90;;;;;;4981902;28;20113;-76
2021/11/29 09:26:05;;;;;;;69.78;28.25;;;-0.60;99.90;;;;;;4991334;28;20080;-75
2021/11/29 09:28:31;;;;;;;64.03;27.00;;;-0.60;99.90;;;;;;4992466;28;20042;-76
2021/11/29 09:30:57;;;;;;;66.72;27.52;;;-0.70;99.90;;;;;;4980841;28;20108;-76
2021/11/29 09:33:23;;;;;;;66.57;27.02;;;-0.60;99.90;;;;;;4985217;28;20023;-76
2021/11/29 09:35:50;;;;;;;42.88;17.67;;;-0.60;99.90;;;;;;4993294;28;20052;-75
2021/11/29 09:38:16;;;;;;;50.17;21.83;;;-0.70;99.90;;;;;;4993299;28;20062;-76
2021/11/29 09:40:43;;;;;;;65.78;28.08;;;-0.70;99.90;;;;;;4992980;28;20057;-75
2021/11/29 09:43:11;;;;;;;59.45;27.60;;;-0.70;99.90;;;;;;4984003;28;20036;-75
2021/11/29 09:45:41;;;;;;;49.72;22.35;;;-0.60;99.90;;;;;;4983598;28;20046;-75
2021/11/29 09:48:09;;;;;;;59.75;25.58;;;-0.60;99.90;;;;;;4993212;28;20081;-76
2021/11/29 09:50:40;;;;;;;52.05;24.00;;;-0.60;99.90;;;;;;4993062;28;20018;-76
2021/11/29 09:53:07;;;;;;;40.58;18.95;;;-0.60;99.90;;;;;;4993199;28;20018;-75
2021/11/29 09:55:33;;;;;;;40.30;21.35;;;-0.60;99.90;;;;;;4979982;28;20058;-75
2021/11/29 09:57:59;;;;;;;42.03;20.83;;;-0.60;99.90;;;;;;4993280;28;20026;-76
2021/11/29 10:00:30;;;;;;;46.47;21.00;;;-0.60;99.90;;;;;;4992774;28;20023;-75
2021/11/29 10:02:56;;;;;;;34.72;17.75;;;-0.60;99.90;;;;;;4992507;28;20029;-76
2021/11/29 10:05:24;;;;;;;34.30;15.63;;;-0.60;99.90;;;;;;4992915;28;20034;-75
2021/11/29 10:07:51;;;;;;;34.00;16.30;;;-0.70;99.90;;;;;;4981226;28;20471;-75
2021/11/29 10:10:24;;;;;;;26.98;14.52;;;-0.60;99.90;;;;;;4992369;28;20392;-75
2021/11/29 10:12:55;;;;;;;25.20;12.77;;;-0.70;99.90;;;;;;4993880;28;20030;-76
2021/11/29 10:15:41;;;;;;;30.60;16.13;;;-0.60;99.90;;;;;;4976127;28;20022;-75
2021/11/29 10:18:16;;;;;;;31.20;19.73;;;-0.60;99.90;;;;;;4993713;28;20118;-76
2021/11/29 10:21:00;;;;;;;34.50;19.00;;;-0.60;99.90;;;;;;4993789;28;20101;-75
2021/11/29 10:23:40;;;;;;;39.20;20.38;;;-0.60;99.90;;;;;;4976337;28;20030;-76
2021/11/29 10:26:23;;;;;;;38.22;19.83;;;-0.60;99.90;;;;;;4976056;28;20026;-75
2021/11/29 10:29:00;;;;;;;38.70;18.75;;;-0.60;99.90;;;;;;4976080;28;20061;-76
2021/11/29 10:31:29;;;;;;;33.35;17.40;;;-0.60;99.90;;;;;;4990870;28;20101;-75
2021/11/29 10:34:09;;;;;;;34.47;19.38;;;-0.60;99.90;;;;;;4993464;28;20026;-75
2021/11/29 10:36:44;;;;;;;27.35;13.80;;;-0.60;99.90;;;;;;4976025;28;20038;-75
2021/11/29 10:39:22;;;;;;;31.58;16.40;;;-0.60;99.90;;;;;;4975770;28;20121;-75
2021/11/29 10:41:55;;;;;;;29.35;14.70;;;-0.70;99.90;;;;;;4976192;28;20019;-76
2021/11/29 10:44:26;;;;;;;30.70;15.57;;;-0.70;99.90;;;;;;4975639;28;20026;-76
2021/11/29 10:46:58;;;;;;;30.38;17.30;;;-0.60;99.90;;;;;;4993028;28;20089;-75
2021/11/29 10:49:30;;;;;;;33.50;17.23;;;-0.60;99.90;;;;;;4975769;28;20407;-76
2021/11/29 10:51:58;;;;;;;45.10;20.83;;;-0.60;99.90;;;;;;4975894;28;20022;-75
2021/11/29 10:54:27;;;;;;;23.52;13.10;;;-0.60;99.90;;;;;;4990994;28;20129;-76
2021/11/29 10:56:56;;;;;;;27.85;14.90;;;-0.60;99.90;;;;;;4993394;28;20492;-76
2021/11/29 10:59:25;;;;;;;31.77;15.73;;;-0.60;99.90;;;;;;4991521;28;20036;-76
2021/11/29 11:02:03;;;;;;;31.33;18.02;;;-0.60;99.90;;;;;;4986037;28;20025;-76
2021/11/29 11:04:32;;;;;;;27.17;14.50;;;-0.60;99.90;;;;;;4992044;28;20047;-76
2021/11/29 11:07:03;;;;;;;25.33;14.90;;;-0.50;99.90;;;;;;4993277;28;20073;-76
2021/11/29 11:09:36;;;;;;;23.80;12.40;;;-0.60;99.90;;;;;;4992965;28;20457;-76
2021/11/29 11:12:13;;;;;;;23.80;13.30;;;-0.60;99.90;;;;;;4977730;28;20034;-76
2021/11/29 11:14:52;;;;;;;23.63;12.32;;;-0.50;99.90;;;;;;4979437;28;20088;-75
2021/11/29 11:17:21;;;;;;;24.83;14.43;;;-0.60;99.90;;;;;;4991722;28;20019;-76
2021/11/29 11:19:49;;;;;;;27.00;14.10;;;-0.60;99.90;;;;;;4978893;28;20427;-75
2021/11/29 11:22:22;;;;;;;23.02;13.30;;;-0.50;99.90;;;;;;4977976;28;20065;-75
2021/11/29 11:24:54;;;;;;;27.35;14.50;;;-0.50;99.90;;;;;;4977529;28;20037;-75
2021/11/29 11:27:21;;;;;;;25.50;14.95;;;-0.50;99.90;;;;;;4977880;28;20027;-76
2021/11/29 11:29:53;;;;;;;25.23;13.57;;;-0.50;99.90;;;;;;4994683;28;20516;-75
2021/11/29 11:32:24;;;;;;;24.30;14.23;;;-0.50;99.90;;;;;;4995125;28;20022;-76
2021/11/29 11:34:52;;;;;;;29.25;15.43;;;-0.40;99.90;;;;;;4977606;28;20034;-76
2021/11/29 11:37:20;;;;;;;32.85;15.98;;;-0.40;99.90;;;;;;4993084;28;20076;-76
2021/11/29 11:39:48;;;;;;;36.58;18.90;;;-0.30;99.90;;;;;;4993416;28;20681;-75
2021/11/29 11:42:14;;;;;;;30.88;14.57;;;-0.30;99.90;;;;;;4993518;28;20018;-75
2021/11/29 11:44:41;;;;;;;31.20;18.40;;;-0.40;99.90;;;;;;4992240;28;20029;-76
2021/11/29 11:47:08;;;;;;;24.15;14.88;;;-0.30;99.90;;;;;;4993867;28;20022;-76
2021/11/29 11:49:39;;;;;;;42.47;22.27;;;-0.30;99.90;;;;;;4996258;28;20026;-76
2021/11/29 11:52:07;;;;;;;26.55;15.20;;;-0.30;99.90;;;;;;4996401;28;20090;-76
2021/11/29 11:54:33;;;;;;;30.15;15.35;;;-0.30;99.90;;;;;;4994748;28;20027;-75
2021/11/29 11:57:02;;;;;;;26.45;13.70;;;-0.30;99.90;;;;;;4994341;28;20042;-76
2021/11/29 11:59:38;;;;;;;27.58;16.48;;;-0.30;99.90;;;;;;4995733;28;20030;-76
2021/11/29 12:02:06;;;;;;;27.90;15.00;;;-0.30;99.90;;;;;;4978590;28;20056;-76
2021/11/29 12:04:32;;;;;;;30.58;16.67;;;-0.30;99.90;;;;;;4996155;28;20040;-75
2021/11/29 12:06:58;;;;;;;20.35;12.52;;;-0.30;99.90;;;;;;4978776;28;20534;-75
2021/11/29 12:09:31;;;;;;;20.25;12.35;;;-0.40;99.90;;;;;;4978222;28;20034;-75
2021/11/29 12:12:04;;;;;;;18.80;11.70;;;-0.40;99.90;;;;;;4978381;28;20088;-76
2021/11/29 12:14:35;;;;;;;23.23;12.32;;;-0.40;99.90;;;;;;4995776;28;20389;-76
2021/11/29 12:17:12;;;;;;;23.33;12.05;;;-0.50;99.90;;;;;;4978316;28;20480;-75
2021/11/29 12:19:42;;;;;;;30.00;14.45;;;-0.50;99.90;;;;;;4995631;28;20109;-75
2021/11/29 12:22:16;;;;;;;20.80;12.52;;;-0.50;99.90;;;;;;4995197;28;20026;-75
2021/11/29 12:24:57;;;;;;;22.33;12.75;;;-0.50;99.90;;;;;;4977288;28;20037;-75
2021/11/29 12:27:38;;;;;;;28.92;15.30;;;-0.50;99.90;;;;;;4995424;28;20472;-75